sensor_id;sensor_type;location;lat;lon;timestamp;temperature;humidity
14101;DHT22;7127;49.372;8.166;2024-03-22T00:00:17;15.20;50.10
14101;DHT22;7127;49.372;8.166;2024-03-22T00:02:43;15.10;50.00
14101;DHT22;7127;49.372;8.166;2024-03-22T00:05:10;15.00;49.90
14101;DHT22;7127;49.372;8.166;2024-03-22T00:07:35;15.30;50.10
14101;DHT22;7127;49.372;8.166;2024-03-22T00:10:04;15.00;50.00
14101;DHT22;7127;49.372;8.166;2024-03-22T00:12:30;15.00;49.90
14101;DHT22;7127;49.372;8.166;2024-03-22T00:14:58;15.00;49.90
14101;DHT22;7127;49.372;8.166;2024-03-22T00:17:24;15.00;50.00
14101;DHT22;7127;49.372;8.166;2024-03-22T00:19:51;15.00;50.00
14101;DHT22;7127;49.372;8.166;2024-03-22T00:22:17;15.20;50.10
14101;DHT22;7127;49.372;8.166;2024-03-22T00:24:43;14.90;50.00
14101;DHT22;7127;49.372;8.166;2024-03-22T00:27:09;14.90;49.80
14101;DHT22;7127;49.372;8.166;2024-03-22T00:29:37;14.80;49.90
14101;DHT22;7127;49.372;8.166;2024-03-22T00:32:04;14.80;49.90
14101;DHT22;7127;49.372;8.166;2024-03-22T00:34:33;14.80;49.90
14101;DHT22;7127;49.372;8.166;2024-03-22T00:36:58;14.70;49.90
14101;DHT22;7127;49.372;8.166;2024-03-22T00:39:25;14.70;49.90
14101;DHT22;7127;49.372;8.166;2024-03-22T00:41:51;14.70;49.90
14101;DHT22;7127;49.372;8.166;2024-03-22T00:44:18;14.70;50.00
14101;DHT22;7127;49.372;8.166;2024-03-22T00:46:43;14.60;50.00
14101;DHT22;7127;49.372;8.166;2024-03-22T00:49:11;14.60;50.10
14101;DHT22;7127;49.372;8.166;2024-03-22T00:51:38;14.60;50.10
14101;DHT22;7127;49.372;8.166;2024-03-22T00:54:05;14.60;50.20
14101;DHT22;7127;49.372;8.166;2024-03-22T00:56:31;14.60;50.30
14101;DHT22;7127;49.372;8.166;2024-03-22T00:58:57;14.50;50.20
14101;DHT22;7127;49.372;8.166;2024-03-22T01:01:23;14.50;50.20
14101;DHT22;7127;49.372;8.166;2024-03-22T01:03:50;14.50;50.20
14101;DHT22;7127;49.372;8.166;2024-03-22T01:06:17;14.50;50.10
14101;DHT22;7127;49.372;8.166;2024-03-22T01:08:49;14.50;50.20
14101;DHT22;7127;49.372;8.166;2024-03-22T01:11:14;14.50;50.10
14101;DHT22;7127;49.372;8.166;2024-03-22T01:13:41;14.40;50.10
14101;DHT22;7127;49.372;8.166;2024-03-22T01:16:07;14.40;50.20
14101;DHT22;7127;49.372;8.166;2024-03-22T01:18:35;14.40;50.20
14101;DHT22;7127;49.372;8.166;2024-03-22T01:21:00;14.40;50.20
14101;DHT22;7127;49.372;8.166;2024-03-22T01:23:29;14.40;50.40
14101;DHT22;7127;49.372;8.166;2024-03-22T01:25:55;14.30;50.40
14101;DHT22;7127;49.372;8.166;2024-03-22T01:28:22;14.40;50.50
14101;DHT22;7127;49.372;8.166;2024-03-22T01:30:48;14.40;50.50
14101;DHT22;7127;49.372;8.166;2024-03-22T01:33:15;14.30;50.40
14101;DHT22;7127;49.372;8.166;2024-03-22T01:35:41;14.40;50.40
14101;DHT22;7127;49.372;8.166;2024-03-22T01:38:07;14.40;50.50
14101;DHT22;7127;49.372;8.166;2024-03-22T01:40:34;14.40;50.50
14101;DHT22;7127;49.372;8.166;2024-03-22T01:43:01;14.40;50.50
14101;DHT22;7127;49.372;8.166;2024-03-22T01:45:32;14.30;50.40
14101;DHT22;7127;49.372;8.166;2024-03-22T01:47:59;14.40;50.50
14101;DHT22;7127;49.372;8.166;2024-03-22T01:50:25;14.30;50.40
14101;DHT22;7127;49.372;8.166;2024-03-22T01:52:52;14.30;50.40
14101;DHT22;7127;49.372;8.166;2024-03-22T01:55:18;14.40;50.50
14101;DHT22;7127;49.372;8.166;2024-03-22T01:57:46;14.30;50.40
14101;DHT22;7127;49.372;8.166;2024-03-22T02:00:14;14.30;50.40
14101;DHT22;7127;49.372;8.166;2024-03-22T02:02:40;14.30;50.50
14101;DHT22;7127;49.372;8.166;2024-03-22T02:05:13;14.40;50.50
14101;DHT22;7127;49.372;8.166;2024-03-22T02:07:40;14.30;50.60
14101;DHT22;7127;49.372;8.166;2024-03-22T02:10:07;14.30;50.40
14101;DHT22;7127;49.372;8.166;2024-03-22T02:12:36;14.20;50.40
14101;DHT22;7127;49.372;8.166;2024-03-22T02:15:04;14.20;50.40
14101;DHT22;7127;49.372;8.166;2024-03-22T02:17:32;14.20;50.40
14101;DHT22;7127;49.372;8.166;2024-03-22T02:19:58;14.20;50.60
14101;DHT22;7127;49.372;8.166;2024-03-22T02:22:26;14.20;50.50
14101;DHT22;7127;49.372;8.166;2024-03-22T02:24:53;14.10;50.50
14101;DHT22;7127;49.372;8.166;2024-03-22T02:27:20;14.10;50.50
14101;DHT22;7127;49.372;8.166;2024-03-22T02:29:46;14.10;50.60
14101;DHT22;7127;49.372;8.166;2024-03-22T02:32:13;14.10;51.20
14101;DHT22;7127;49.372;8.166;2024-03-22T02:34:39;14.10;50.60
14101;DHT22;7127;49.372;8.166;2024-03-22T02:37:05;14.10;50.70
14101;DHT22;7127;49.372;8.166;2024-03-22T02:39:31;14.10;50.70
14101;DHT22;7127;49.372;8.166;2024-03-22T02:41:59;14.00;50.60
14101;DHT22;7127;49.372;8.166;2024-03-22T02:44:26;14.00;50.60
14101;DHT22;7127;49.372;8.166;2024-03-22T02:46:52;14.00;50.60
14101;DHT22;7127;49.372;8.166;2024-03-22T02:49:19;14.00;50.60
14101;DHT22;7127;49.372;8.166;2024-03-22T02:51:44;14.00;50.80
14101;DHT22;7127;49.372;8.166;2024-03-22T02:54:11;14.00;50.70
14101;DHT22;7127;49.372;8.166;2024-03-22T02:56:37;13.90;50.80
14101;DHT22;7127;49.372;8.166;2024-03-22T02:59:05;13.90;50.70
14101;DHT22;7127;49.372;8.166;2024-03-22T03:01:31;13.80;50.90
14101;DHT22;7127;49.372;8.166;2024-03-22T03:03:57;13.80;50.90
14101;DHT22;7127;49.372;8.166;2024-03-22T03:06:23;13.80;51.00
14101;DHT22;7127;49.372;8.166;2024-03-22T03:08:50;13.80;51.10
14101;DHT22;7127;49.372;8.166;2024-03-22T03:11:16;13.80;51.10
14101;DHT22;7127;49.372;8.166;2024-03-22T03:13:42;13.80;51.30
14101;DHT22;7127;49.372;8.166;2024-03-22T03:16:10;13.70;51.10
14101;DHT22;7127;49.372;8.166;2024-03-22T03:18:36;13.70;51.20
14101;DHT22;7127;49.372;8.166;2024-03-22T03:21:02;13.80;51.30
14101;DHT22;7127;49.372;8.166;2024-03-22T03:23:29;13.80;51.40
14101;DHT22;7127;49.372;8.166;2024-03-22T03:25:55;14.20;51.70
14101;DHT22;7127;49.372;8.166;2024-03-22T03:28:21;13.80;51.40
14101;DHT22;7127;49.372;8.166;2024-03-22T03:30:47;13.80;51.40
14101;DHT22;7127;49.372;8.166;2024-03-22T03:33:15;13.80;51.40
14101;DHT22;7127;49.372;8.166;2024-03-22T03:35:45;13.80;51.40
14101;DHT22;7127;49.372;8.166;2024-03-22T03:38:12;13.80;51.60
14101;DHT22;7127;49.372;8.166;2024-03-22T03:40:38;13.80;51.50
14101;DHT22;7127;49.372;8.166;2024-03-22T03:43:04;13.70;51.50
14101;DHT22;7127;49.372;8.166;2024-03-22T03:45:30;13.70;51.50
14101;DHT22;7127;49.372;8.166;2024-03-22T03:47:57;13.80;51.50
14101;DHT22;7127;49.372;8.166;2024-03-22T03:50:24;13.80;51.40
14101;DHT22;7127;49.372;8.166;2024-03-22T03:52:50;14.30;51.80
14101;DHT22;7127;49.372;8.166;2024-03-22T03:55:16;13.80;51.50
14101;DHT22;7127;49.372;8.166;2024-03-22T03:57:43;13.80;51.50
14101;DHT22;7127;49.372;8.166;2024-03-22T04:00:09;13.80;51.40
14101;DHT22;7127;49.372;8.166;2024-03-22T04:02:36;13.80;51.40
14101;DHT22;7127;49.372;8.166;2024-03-22T04:05:02;13.80;51.40
14101;DHT22;7127;49.372;8.166;2024-03-22T04:07:30;13.80;51.40
14101;DHT22;7127;49.372;8.166;2024-03-22T04:09:56;13.70;51.30
14101;DHT22;7127;49.372;8.166;2024-03-22T04:12:22;13.70;51.40
14101;DHT22;7127;49.372;8.166;2024-03-22T04:14:48;13.80;51.40
14101;DHT22;7127;49.372;8.166;2024-03-22T04:17:15;13.70;51.40
14101;DHT22;7127;49.372;8.166;2024-03-22T04:19:40;13.70;51.40
14101;DHT22;7127;49.372;8.166;2024-03-22T04:22:07;13.70;51.50
14101;DHT22;7127;49.372;8.166;2024-03-22T04:24:34;13.70;51.50
14101;DHT22;7127;49.372;8.166;2024-03-22T04:27:01;13.60;51.60
14101;DHT22;7127;49.372;8.166;2024-03-22T04:29:27;13.60;51.50
14101;DHT22;7127;49.372;8.166;2024-03-22T04:31:54;13.60;51.50
14101;DHT22;7127;49.372;8.166;2024-03-22T04:34:19;13.60;51.60
14101;DHT22;7127;49.372;8.166;2024-03-22T04:36:46;13.60;51.60
14101;DHT22;7127;49.372;8.166;2024-03-22T04:39:12;13.60;51.60
14101;DHT22;7127;49.372;8.166;2024-03-22T04:41:40;13.60;51.60
14101;DHT22;7127;49.372;8.166;2024-03-22T04:44:07;14.00;52.00
14101;DHT22;7127;49.372;8.166;2024-03-22T04:46:34;13.50;51.80
14101;DHT22;7127;49.372;8.166;2024-03-22T04:49:00;13.60;51.80
14101;DHT22;7127;49.372;8.166;2024-03-22T04:51:27;13.50;51.50
14101;DHT22;7127;49.372;8.166;2024-03-22T04:53:52;13.50;51.70
14101;DHT22;7127;49.372;8.166;2024-03-22T04:56:19;13.50;51.80
14101;DHT22;7127;49.372;8.166;2024-03-22T04:58:46;13.60;52.00
14101;DHT22;7127;49.372;8.166;2024-03-22T05:01:13;13.40;51.80
14101;DHT22;7127;49.372;8.166;2024-03-22T05:03:40;13.40;51.90
14101;DHT22;7127;49.372;8.166;2024-03-22T05:06:07;13.40;51.90
14101;DHT22;7127;49.372;8.166;2024-03-22T05:08:32;13.40;51.80
14101;DHT22;7127;49.372;8.166;2024-03-22T05:10:59;13.30;52.00
14101;DHT22;7127;49.372;8.166;2024-03-22T05:13:25;13.20;51.80
14101;DHT22;7127;49.372;8.166;2024-03-22T05:15:53;13.30;52.00
14101;DHT22;7127;49.372;8.166;2024-03-22T05:18:19;13.30;52.10
14101;DHT22;7127;49.372;8.166;2024-03-22T05:20:45;13.30;52.10
14101;DHT22;7127;49.372;8.166;2024-03-22T05:23:11;13.30;52.20
14101;DHT22;7127;49.372;8.166;2024-03-22T05:25:38;13.30;52.20
14101;DHT22;7127;49.372;8.166;2024-03-22T05:28:04;13.20;52.30
14101;DHT22;7127;49.372;8.166;2024-03-22T05:30:31;13.30;52.30
14101;DHT22;7127;49.372;8.166;2024-03-22T05:32:59;13.30;52.30
14101;DHT22;7127;49.372;8.166;2024-03-22T05:35:27;13.80;52.70
14101;DHT22;7127;49.372;8.166;2024-03-22T05:37:53;13.30;52.30
14101;DHT22;7127;49.372;8.166;2024-03-22T05:40:19;13.20;52.30
14101;DHT22;7127;49.372;8.166;2024-03-22T05:42:45;13.70;52.60
14101;DHT22;7127;49.372;8.166;2024-03-22T05:45:12;13.20;52.30
14101;DHT22;7127;49.372;8.166;2024-03-22T05:47:37;13.30;52.30
14101;DHT22;7127;49.372;8.166;2024-03-22T05:50:07;13.20;52.30
14101;DHT22;7127;49.372;8.166;2024-03-22T05:52:33;13.30;52.60
14101;DHT22;7127;49.372;8.166;2024-03-22T05:55:00;13.30;52.50
14101;DHT22;7127;49.372;8.166;2024-03-22T05:57:26;13.20;52.40
14101;DHT22;7127;49.372;8.166;2024-03-22T05:59:53;13.30;52.70
14101;DHT22;7127;49.372;8.166;2024-03-22T06:02:19;13.30;52.60
14101;DHT22;7127;49.372;8.166;2024-03-22T06:04:46;13.30;52.60
14101;DHT22;7127;49.372;8.166;2024-03-22T06:07:14;13.90;52.80
14101;DHT22;7127;49.372;8.166;2024-03-22T06:09:42;13.40;52.60
14101;DHT22;7127;49.372;8.166;2024-03-22T06:12:11;13.30;52.60
14101;DHT22;7127;49.372;8.166;2024-03-22T06:14:39;13.30;52.70
14101;DHT22;7127;49.372;8.166;2024-03-22T06:17:05;13.40;52.70
14101;DHT22;7127;49.372;8.166;2024-03-22T06:19:32;13.30;52.60
14101;DHT22;7127;49.372;8.166;2024-03-22T06:21:57;13.40;52.60
14101;DHT22;7127;49.372;8.166;2024-03-22T06:24:25;13.50;52.90
14101;DHT22;7127;49.372;8.166;2024-03-22T06:26:51;13.30;52.70
14101;DHT22;7127;49.372;8.166;2024-03-22T06:29:18;13.40;53.10
14101;DHT22;7127;49.372;8.166;2024-03-22T06:31:44;13.50;53.00
14101;DHT22;7127;49.372;8.166;2024-03-22T06:34:10;13.50;53.10
14101;DHT22;7127;49.372;8.166;2024-03-22T06:36:36;13.50;53.20
14101;DHT22;7127;49.372;8.166;2024-03-22T06:39:03;13.60;53.40
14101;DHT22;7127;49.372;8.166;2024-03-22T06:41:34;13.80;53.50
14101;DHT22;7127;49.372;8.166;2024-03-22T06:44:01;13.70;53.50
14101;DHT22;7127;49.372;8.166;2024-03-22T06:46:26;13.80;53.60
14101;DHT22;7127;49.372;8.166;2024-03-22T06:48:53;13.90;53.70
14101;DHT22;7127;49.372;8.166;2024-03-22T06:51:20;13.90;53.70
14101;DHT22;7127;49.372;8.166;2024-03-22T06:53:46;14.10;53.90
14101;DHT22;7127;49.372;8.166;2024-03-22T06:56:13;14.20;54.00
14101;DHT22;7127;49.372;8.166;2024-03-22T06:58:42;14.30;54.10
14101;DHT22;7127;49.372;8.166;2024-03-22T07:01:07;14.50;54.20
14101;DHT22;7127;49.372;8.166;2024-03-22T07:03:34;14.50;54.10
14101;DHT22;7127;49.372;8.166;2024-03-22T07:06:00;14.70;54.10
14101;DHT22;7127;49.372;8.166;2024-03-22T07:08:27;14.80;54.10
14101;DHT22;7127;49.372;8.166;2024-03-22T07:10:54;14.90;54.00
14101;DHT22;7127;49.372;8.166;2024-03-22T07:13:21;15.00;54.00
14101;DHT22;7127;49.372;8.166;2024-03-22T07:15:48;15.10;54.00
14101;DHT22;7127;49.372;8.166;2024-03-22T07:18:15;15.30;54.00
14101;DHT22;7127;49.372;8.166;2024-03-22T07:20:41;15.30;53.90
14101;DHT22;7127;49.372;8.166;2024-03-22T07:23:08;15.50;53.90
14101;DHT22;7127;49.372;8.166;2024-03-22T07:25:33;15.60;53.80
14101;DHT22;7127;49.372;8.166;2024-03-22T07:28:00;15.60;53.70
14101;DHT22;7127;49.372;8.166;2024-03-22T07:30:26;15.70;53.70
14101;DHT22;7127;49.372;8.166;2024-03-22T07:32:54;15.90;53.80
14101;DHT22;7127;49.372;8.166;2024-03-22T07:35:20;15.90;53.70
14101;DHT22;7127;49.372;8.166;2024-03-22T07:37:47;16.00;53.60
14101;DHT22;7127;49.372;8.166;2024-03-22T07:40:12;16.00;53.50
14101;DHT22;7127;49.372;8.166;2024-03-22T07:42:39;16.10;53.50
14101;DHT22;7127;49.372;8.166;2024-03-22T07:45:05;16.20;53.40
14101;DHT22;7127;49.372;8.166;2024-03-22T07:47:32;16.30;53.50
14101;DHT22;7127;49.372;8.166;2024-03-22T07:49:59;16.30;53.40
14101;DHT22;7127;49.372;8.166;2024-03-22T07:52:26;16.40;53.40
14101;DHT22;7127;49.372;8.166;2024-03-22T07:54:52;16.50;53.40
14101;DHT22;7127;49.372;8.166;2024-03-22T07:57:19;16.50;53.30
14101;DHT22;7127;49.372;8.166;2024-03-22T07:59:45;16.60;53.30
14101;DHT22;7127;49.372;8.166;2024-03-22T08:02:13;16.60;53.20
14101;DHT22;7127;49.372;8.166;2024-03-22T08:04:38;16.80;53.20
14101;DHT22;7127;49.372;8.166;2024-03-22T08:07:07;16.80;53.10
14101;DHT22;7127;49.372;8.166;2024-03-22T08:09:32;16.70;52.90
14101;DHT22;7127;49.372;8.166;2024-03-22T08:11:59;16.90;53.10
14101;DHT22;7127;49.372;8.166;2024-03-22T08:14:25;17.00;53.10
14101;DHT22;7127;49.372;8.166;2024-03-22T08:16:51;17.10;53.10
14101;DHT22;7127;49.372;8.166;2024-03-22T08:19:17;17.10;53.10
14101;DHT22;7127;49.372;8.166;2024-03-22T08:21:47;17.10;53.10
14101;DHT22;7127;49.372;8.166;2024-03-22T08:24:14;17.20;53.10
14101;DHT22;7127;49.372;8.166;2024-03-22T08:26:40;17.20;53.10
14101;DHT22;7127;49.372;8.166;2024-03-22T08:29:10;17.10;53.00
14101;DHT22;7127;49.372;8.166;2024-03-22T08:31:37;17.30;53.20
14101;DHT22;7127;49.372;8.166;2024-03-22T08:34:03;17.30;53.20
14101;DHT22;7127;49.372;8.166;2024-03-22T08:36:31;17.30;53.20
14101;DHT22;7127;49.372;8.166;2024-03-22T08:38:56;17.30;53.20
14101;DHT22;7127;49.372;8.166;2024-03-22T08:41:25;17.30;53.20
14101;DHT22;7127;49.372;8.166;2024-03-22T08:43:50;17.40;53.40
14101;DHT22;7127;49.372;8.166;2024-03-22T08:46:17;17.50;53.50
14101;DHT22;7127;49.372;8.166;2024-03-22T08:48:43;17.40;53.40
14101;DHT22;7127;49.372;8.166;2024-03-22T08:51:09;17.50;53.40
14101;DHT22;7127;49.372;8.166;2024-03-22T08:53:35;17.50;53.40
14101;DHT22;7127;49.372;8.166;2024-03-22T08:56:03;17.50;53.40
14101;DHT22;7127;49.372;8.166;2024-03-22T08:58:30;17.50;53.30
14101;DHT22;7127;49.372;8.166;2024-03-22T09:00:57;17.50;53.40
14101;DHT22;7127;49.372;8.166;2024-03-22T09:03:23;17.60;53.60
14101;DHT22;7127;49.372;8.166;2024-03-22T09:05:52;17.60;53.60
14101;DHT22;7127;49.372;8.166;2024-03-22T09:08:18;17.60;53.60
14101;DHT22;7127;49.372;8.166;2024-03-22T09:10:45;17.70;53.60
14101;DHT22;7127;49.372;8.166;2024-03-22T09:13:11;17.80;53.60
14101;DHT22;7127;49.372;8.166;2024-03-22T09:15:39;17.90;53.60
14101;DHT22;7127;49.372;8.166;2024-03-22T09:18:05;17.80;53.50
14101;DHT22;7127;49.372;8.166;2024-03-22T09:20:32;17.80;53.50
14101;DHT22;7127;49.372;8.166;2024-03-22T09:22:58;17.90;53.60
14101;DHT22;7127;49.372;8.166;2024-03-22T09:25:25;17.90;53.60
14101;DHT22;7127;49.372;8.166;2024-03-22T09:27:51;18.00;53.70
14101;DHT22;7127;49.372;8.166;2024-03-22T09:30:17;18.10;53.70
14101;DHT22;7127;49.372;8.166;2024-03-22T09:32:45;18.10;53.70
14101;DHT22;7127;49.372;8.166;2024-03-22T09:35:11;18.20;53.80
14101;DHT22;7127;49.372;8.166;2024-03-22T09:37:40;18.30;53.80
14101;DHT22;7127;49.372;8.166;2024-03-22T09:40:07;18.40;53.70
14101;DHT22;7127;49.372;8.166;2024-03-22T09:42:34;18.50;53.80
14101;DHT22;7127;49.372;8.166;2024-03-22T09:45:08;18.60;53.80
14101;DHT22;7127;49.372;8.166;2024-03-22T09:47:34;18.70;53.70
14101;DHT22;7127;49.372;8.166;2024-03-22T09:50:06;18.80;53.70
14101;DHT22;7127;49.372;8.166;2024-03-22T09:52:33;18.90;53.50
14101;DHT22;7127;49.372;8.166;2024-03-22T09:55:00;19.00;53.40
14101;DHT22;7127;49.372;8.166;2024-03-22T09:57:29;19.10;53.30
14101;DHT22;7127;49.372;8.166;2024-03-22T09:59:57;19.20;53.20
14101;DHT22;7127;49.372;8.166;2024-03-22T10:02:23;19.30;53.10
14101;DHT22;7127;49.372;8.166;2024-03-22T10:04:52;19.40;53.10
14101;DHT22;7127;49.372;8.166;2024-03-22T10:07:19;19.50;52.90
14101;DHT22;7127;49.372;8.166;2024-03-22T10:09:46;19.60;52.70
14101;DHT22;7127;49.372;8.166;2024-03-22T10:12:12;19.70;52.60
14101;DHT22;7127;49.372;8.166;2024-03-22T10:14:38;19.80;52.60
14101;DHT22;7127;49.372;8.166;2024-03-22T10:17:07;19.80;52.40
14101;DHT22;7127;49.372;8.166;2024-03-22T10:19:34;19.90;52.10
14101;DHT22;7127;49.372;8.166;2024-03-22T10:22:00;20.00;52.60
14101;DHT22;7127;49.372;8.166;2024-03-22T10:24:29;20.00;51.80
14101;DHT22;7127;49.372;8.166;2024-03-22T10:26:54;20.10;51.80
14101;DHT22;7127;49.372;8.166;2024-03-22T10:29:22;20.10;51.60
14101;DHT22;7127;49.372;8.166;2024-03-22T10:31:48;20.10;51.50
14101;DHT22;7127;49.372;8.166;2024-03-22T10:34:15;20.20;51.50
14101;DHT22;7127;49.372;8.166;2024-03-22T10:36:42;20.20;51.20
14101;DHT22;7127;49.372;8.166;2024-03-22T10:39:11;20.20;51.00
14101;DHT22;7127;49.372;8.166;2024-03-22T10:41:42;20.20;50.70
14101;DHT22;7127;49.372;8.166;2024-03-22T10:44:09;20.40;50.70
14101;DHT22;7127;49.372;8.166;2024-03-22T10:46:35;20.30;50.30
14101;DHT22;7127;49.372;8.166;2024-03-22T10:49:03;20.50;51.00
14101;DHT22;7127;49.372;8.166;2024-03-22T10:51:30;20.80;50.40
14101;DHT22;7127;49.372;8.166;2024-03-22T10:53:58;20.60;50.10
14101;DHT22;7127;49.372;8.166;2024-03-22T10:56:26;20.60;49.90
14101;DHT22;7127;49.372;8.166;2024-03-22T10:58:54;20.70;49.70
14101;DHT22;7127;49.372;8.166;2024-03-22T11:01:24;20.70;49.50
14101;DHT22;7127;49.372;8.166;2024-03-22T11:03:51;20.90;49.50
14101;DHT22;7127;49.372;8.166;2024-03-22T11:06:30;20.80;49.40
14101;DHT22;7127;49.372;8.166;2024-03-22T11:08:59;20.80;49.30
14101;DHT22;7127;49.372;8.166;2024-03-22T11:11:28;21.00;49.00
14101;DHT22;7127;49.372;8.166;2024-03-22T11:13:57;21.00;49.00
14101;DHT22;7127;49.372;8.166;2024-03-22T11:16:23;21.00;48.90
14101;DHT22;7127;49.372;8.166;2024-03-22T11:18:50;21.10;49.00
14101;DHT22;7127;49.372;8.166;2024-03-22T11:21:15;21.10;48.70
14101;DHT22;7127;49.372;8.166;2024-03-22T11:23:45;21.20;48.60
14101;DHT22;7127;49.372;8.166;2024-03-22T11:26:11;21.20;48.50
14101;DHT22;7127;49.372;8.166;2024-03-22T11:28:38;21.30;48.60
14101;DHT22;7127;49.372;8.166;2024-03-22T11:31:05;21.30;48.40
14101;DHT22;7127;49.372;8.166;2024-03-22T11:33:32;21.40;48.40
14101;DHT22;7127;49.372;8.166;2024-03-22T11:35:58;21.50;48.50
14101;DHT22;7127;49.372;8.166;2024-03-22T11:38:26;21.50;48.40
14101;DHT22;7127;49.372;8.166;2024-03-22T11:40:53;21.60;48.50
14101;DHT22;7127;49.372;8.166;2024-03-22T11:43:21;21.60;48.50
14101;DHT22;7127;49.372;8.166;2024-03-22T11:45:48;21.70;48.50
14101;DHT22;7127;49.372;8.166;2024-03-22T11:48:17;21.90;48.60
14101;DHT22;7127;49.372;8.166;2024-03-22T11:50:43;22.10;48.60
14101;DHT22;7127;49.372;8.166;2024-03-22T11:53:09;22.00;48.40
14101;DHT22;7127;49.372;8.166;2024-03-22T11:55:36;22.00;48.30
14101;DHT22;7127;49.372;8.166;2024-03-22T11:58:03;22.10;48.20
14101;DHT22;7127;49.372;8.166;2024-03-22T12:00:28;22.20;48.10
14101;DHT22;7127;49.372;8.166;2024-03-22T12:02:55;22.20;47.90
14101;DHT22;7127;49.372;8.166;2024-03-22T12:05:22;22.40;47.90
14101;DHT22;7127;49.372;8.166;2024-03-22T12:07:51;22.40;47.80
14101;DHT22;7127;49.372;8.166;2024-03-22T12:10:17;22.40;47.70
14101;DHT22;7127;49.372;8.166;2024-03-22T12:12:44;22.50;47.60
14101;DHT22;7127;49.372;8.166;2024-03-22T12:15:10;22.60;47.60
14101;DHT22;7127;49.372;8.166;2024-03-22T12:17:36;22.60;47.40
14101;DHT22;7127;49.372;8.166;2024-03-22T12:20:03;22.70;47.30
14101;DHT22;7127;49.372;8.166;2024-03-22T12:22:31;22.70;47.10
14101;DHT22;7127;49.372;8.166;2024-03-22T12:24:57;22.70;47.10
14101;DHT22;7127;49.372;8.166;2024-03-22T12:27:24;22.80;47.00
14101;DHT22;7127;49.372;8.166;2024-03-22T12:29:50;22.80;46.80
14101;DHT22;7127;49.372;8.166;2024-03-22T12:32:17;22.80;46.70
14101;DHT22;7127;49.372;8.166;2024-03-22T12:34:43;22.80;46.60
14101;DHT22;7127;49.372;8.166;2024-03-22T12:37:09;22.80;46.50
14101;DHT22;7127;49.372;8.166;2024-03-22T12:39:36;22.80;46.50
14101;DHT22;7127;49.372;8.166;2024-03-22T12:42:03;22.70;46.20
14101;DHT22;7127;49.372;8.166;2024-03-22T12:44:29;22.70;46.20
14101;DHT22;7127;49.372;8.166;2024-03-22T12:46:56;22.70;46.40
14101;DHT22;7127;49.372;8.166;2024-03-22T12:49:22;22.70;46.50
14101;DHT22;7127;49.372;8.166;2024-03-22T12:51:49;22.80;46.50
14101;DHT22;7127;49.372;8.166;2024-03-22T12:54:15;22.80;46.50
14101;DHT22;7127;49.372;8.166;2024-03-22T12:56:45;22.80;46.50
14101;DHT22;7127;49.372;8.166;2024-03-22T12:59:11;22.80;46.30
14101;DHT22;7127;49.372;8.166;2024-03-22T13:01:37;23.00;46.40
14101;DHT22;7127;49.372;8.166;2024-03-22T13:04:03;22.90;46.10
14101;DHT22;7127;49.372;8.166;2024-03-22T13:06:30;23.00;46.10
14101;DHT22;7127;49.372;8.166;2024-03-22T13:08:56;23.10;45.70
14101;DHT22;7127;49.372;8.166;2024-03-22T13:11:23;23.00;45.30
14101;DHT22;7127;49.372;8.166;2024-03-22T13:13:51;23.00;45.10
14101;DHT22;7127;49.372;8.166;2024-03-22T13:16:18;23.00;44.80
14101;DHT22;7127;49.372;8.166;2024-03-22T13:18:44;23.10;45.00
14101;DHT22;7127;49.372;8.166;2024-03-22T13:21:10;23.10;45.40
14101;DHT22;7127;49.372;8.166;2024-03-22T13:23:37;23.00;45.00
14101;DHT22;7127;49.372;8.166;2024-03-22T13:26:04;23.20;44.90
14101;DHT22;7127;49.372;8.166;2024-03-22T13:28:30;23.20;44.80
14101;DHT22;7127;49.372;8.166;2024-03-22T13:31:02;23.30;44.00
14101;DHT22;7127;49.372;8.166;2024-03-22T13:33:28;23.30;43.90
14101;DHT22;7127;49.372;8.166;2024-03-22T13:35:55;23.30;44.80
14101;DHT22;7127;49.372;8.166;2024-03-22T13:38:21;23.40;44.00
14101;DHT22;7127;49.372;8.166;2024-03-22T13:40:53;23.40;44.00
14101;DHT22;7127;49.372;8.166;2024-03-22T13:43:19;23.50;43.60
14101;DHT22;7127;49.372;8.166;2024-03-22T13:45:47;23.50;43.90
14101;DHT22;7127;49.372;8.166;2024-03-22T13:48:16;23.50;44.00
14101;DHT22;7127;49.372;8.166;2024-03-22T13:50:43;23.60;43.90
14101;DHT22;7127;49.372;8.166;2024-03-22T13:53:08;23.60;43.80
14101;DHT22;7127;49.372;8.166;2024-03-22T13:55:35;23.60;43.70
14101;DHT22;7127;49.372;8.166;2024-03-22T13:58:01;23.80;43.80
14101;DHT22;7127;49.372;8.166;2024-03-22T14:00:29;23.70;43.70
14101;DHT22;7127;49.372;8.166;2024-03-22T14:02:54;23.70;43.70
14101;DHT22;7127;49.372;8.166;2024-03-22T14:05:23;23.70;43.70
14101;DHT22;7127;49.372;8.166;2024-03-22T14:07:49;23.70;43.30
14101;DHT22;7127;49.372;8.166;2024-03-22T14:10:16;23.70;43.20
14101;DHT22;7127;49.372;8.166;2024-03-22T14:12:42;23.70;43.20
14101;DHT22;7127;49.372;8.166;2024-03-22T14:15:09;23.70;43.10
14101;DHT22;7127;49.372;8.166;2024-03-22T14:17:35;23.70;42.70
14101;DHT22;7127;49.372;8.166;2024-03-22T14:20:02;23.70;42.40
14101;DHT22;7127;49.372;8.166;2024-03-22T14:22:30;23.60;42.30
14101;DHT22;7127;49.372;8.166;2024-03-22T14:24:57;23.60;41.80
14101;DHT22;7127;49.372;8.166;2024-03-22T14:27:24;23.50;41.70
14101;DHT22;7127;49.372;8.166;2024-03-22T14:29:51;23.50;41.40
14101;DHT22;7127;49.372;8.166;2024-03-22T14:32:17;23.40;41.60
14101;DHT22;7127;49.372;8.166;2024-03-22T14:34:44;23.40;41.40
14101;DHT22;7127;49.372;8.166;2024-03-22T14:37:10;23.30;41.60
14101;DHT22;7127;49.372;8.166;2024-03-22T14:39:39;23.30;41.50
14101;DHT22;7127;49.372;8.166;2024-03-22T14:42:07;23.20;41.10
14101;DHT22;7127;49.372;8.166;2024-03-22T14:44:34;23.10;41.40
14101;DHT22;7127;49.372;8.166;2024-03-22T14:47:00;23.10;41.20
14101;DHT22;7127;49.372;8.166;2024-03-22T14:49:26;23.00;41.10
14101;DHT22;7127;49.372;8.166;2024-03-22T14:51:52;23.00;41.50
14101;DHT22;7127;49.372;8.166;2024-03-22T14:54:19;23.00;41.50
14101;DHT22;7127;49.372;8.166;2024-03-22T14:56:47;22.90;41.00
14101;DHT22;7127;49.372;8.166;2024-03-22T14:59:13;22.80;41.30
14101;DHT22;7127;49.372;8.166;2024-03-22T15:01:39;22.90;41.60
14101;DHT22;7127;49.372;8.166;2024-03-22T15:04:06;22.80;41.70
14101;DHT22;7127;49.372;8.166;2024-03-22T15:06:32;22.90;41.90
14101;DHT22;7127;49.372;8.166;2024-03-22T15:08:58;22.90;41.90
14101;DHT22;7127;49.372;8.166;2024-03-22T15:11:27;22.90;41.80
14101;DHT22;7127;49.372;8.166;2024-03-22T15:13:56;22.90;41.80
14101;DHT22;7127;49.372;8.166;2024-03-22T15:16:21;22.90;41.60
14101;DHT22;7127;49.372;8.166;2024-03-22T15:18:48;22.90;41.50
14101;DHT22;7127;49.372;8.166;2024-03-22T15:21:14;22.90;41.60
14101;DHT22;7127;49.372;8.166;2024-03-22T15:23:41;22.90;41.60
14101;DHT22;7127;49.372;8.166;2024-03-22T15:26:07;22.90;41.80
14101;DHT22;7127;49.372;8.166;2024-03-22T15:28:33;22.70;41.90
14101;DHT22;7127;49.372;8.166;2024-03-22T15:31:01;23.00;42.10
14101;DHT22;7127;49.372;8.166;2024-03-22T15:33:27;22.90;42.00
14101;DHT22;7127;49.372;8.166;2024-03-22T15:35:53;22.90;42.00
14101;DHT22;7127;49.372;8.166;2024-03-22T15:38:20;22.90;42.00
14101;DHT22;7127;49.372;8.166;2024-03-22T15:40:47;22.90;42.00